Time;durP1;ratioP1;P1;durP2;ratioP2;P2;SDS_P1;SDS_P2;PMS_P1;PMS_P2;Temp;Humidity;BMP_temperature;BMP_pressure;BME280_temperature;BME280_humidity;BME280_pressure;Samples;Min_cycle;Max_cycle;Signal;HPM_P1;HPM_P2
2022/03/02 00:00:04;;;;;;;27.10;21.15;;;24.00;95.40;;;;;;4162554;28;20515;-65
2022/03/02 00:02:13;;;;;;;29.95;20.13;;;23.90;95.70;;;;;;4161710;28;20087;-65
2022/03/02 00:04:19;;;;;;;24.52;20.02;;;24.00;95.40;;;;;;4160867;28;20416;-66
2022/03/02 00:06:23;;;;;;;25.17;20.35;;;24.00;95.40;;;;;;4162930;28;20189;-65
2022/03/02 00:08:30;;;;;;;25.80;21.00;;;24.00;95.50;;;;;;4162310;28;20099;-66
2022/03/02 00:10:36;;;;;;;27.00;20.17;;;24.10;95.30;;;;;;4194286;28;20052;-66
2022/03/02 00:12:41;;;;;;;23.92;18.80;;;24.10;95.30;;;;;;4162530;28;20136;-66
2022/03/02 00:14:48;;;;;;;20.58;18.25;;;24.10;95.40;;;;;;4163956;28;20041;-66
2022/03/02 00:16:55;;;;;;;24.08;18.88;;;24.10;95.40;;;;;;4165896;28;20053;-66
2022/03/02 00:19:00;;;;;;;28.65;18.52;;;24.20;95.40;;;;;;4164164;28;20061;-67
2022/03/02 00:21:04;;;;;;;28.05;17.20;;;24.10;95.20;;;;;;4165565;28;20722;-66
2022/03/02 00:23:10;;;;;;;21.10;17.23;;;24.20;95.00;;;;;;4164844;28;20073;-67
2022/03/02 00:25:14;;;;;;;23.42;17.73;;;24.30;95.00;;;;;;4165453;28;20057;-67
2022/03/02 00:27:24;;;;;;;24.30;17.02;;;24.40;95.00;;;;;;4165334;28;20169;-66
2022/03/02 00:29:29;;;;;;;21.35;16.77;;;24.40;95.00;;;;;;4164997;28;20362;-66
2022/03/02 00:31:33;;;;;;;22.23;16.10;;;24.40;94.90;;;;;;4165520;28;20047;-67
2022/03/02 00:33:40;;;;;;;19.73;15.30;;;24.40;94.80;;;;;;4164655;28;20041;-67
2022/03/02 00:35:46;;;;;;;19.20;15.43;;;24.40;94.70;;;;;;4165311;28;20049;-67
2022/03/02 00:37:51;;;;;;;20.33;14.93;;;24.40;94.60;;;;;;4165303;28;20045;-67
2022/03/02 00:39:57;;;;;;;19.70;14.32;;;24.50;94.50;;;;;;4164906;28;20052;-67
2022/03/02 00:42:06;;;;;;;20.45;14.32;;;24.60;94.40;;;;;;4165726;28;20076;-67
2022/03/02 00:44:13;;;;;;;19.27;13.95;;;24.60;94.40;;;;;;4164291;28;20045;-67
2022/03/02 00:46:19;;;;;;;18.02;13.02;;;24.60;94.50;;;;;;4165152;28;20564;-66
2022/03/02 00:48:25;;;;;;;17.27;12.38;;;24.60;94.40;;;;;;4163676;28;20065;-68
2022/03/02 00:50:29;;;;;;;17.08;12.27;;;24.60;94.30;;;;;;4164899;28;20518;-67
2022/03/02 00:52:36;;;;;;;14.55;11.27;;;24.70;94.30;;;;;;4160464;28;20053;-67
2022/03/02 00:54:42;;;;;;;14.80;11.32;;;24.70;94.20;;;;;;4159101;28;20750;-66
2022/03/02 00:56:46;;;;;;;14.40;10.30;;;24.70;94.10;;;;;;4164992;28;20045;-67
2022/03/02 00:58:55;;;;;;;14.82;10.25;;;24.80;94.20;;;;;;4164799;28;20522;-67
2022/03/02 01:01:02;;;;;;;13.23;9.65;;;24.80;94.10;;;;;;4161562;28;20513;-67
2022/03/02 01:03:11;;;;;;;14.77;9.65;;;24.90;94.10;;;;;;4148583;28;20077;-67
2022/03/02 01:05:20;;;;;;;15.10;10.45;;;24.90;94.00;;;;;;4163658;28;20484;-67
2022/03/02 01:07:25;;;;;;;15.02;9.55;;;24.90;93.90;;;;;;4164849;28;20096;-65
2022/03/02 01:09:30;;;;;;;20.35;10.35;;;24.90;93.80;;;;;;4164508;28;20073;-66
2022/03/02 01:11:36;;;;;;;15.90;10.02;;;24.90;93.90;;;;;;4164814;28;20053;-66
2022/03/02 01:13:40;;;;;;;16.27;9.90;;;25.00;93.80;;;;;;4163763;28;20135;-66
2022/03/02 01:15:45;;;;;;;13.40;8.82;;;25.00;93.70;;;;;;4164672;28;20056;-66
2022/03/02 01:17:53;;;;;;;11.77;8.38;;;25.00;93.70;;;;;;4164647;28;20052;-66
2022/03/02 01:19:58;;;;;;;9.48;7.82;;;25.00;93.60;;;;;;4164495;28;20087;-66
2022/03/02 01:22:05;;;;;;;11.10;7.22;;;25.00;93.60;;;;;;4164639;28;20057;-65
2022/03/02 01:24:14;;;;;;;10.63;7.40;;;25.10;93.50;;;;;;4168305;28;20572;-66
2022/03/02 01:26:18;;;;;;;10.25;7.45;;;25.10;93.50;;;;;;4180036;28;20095;-65
2022/03/02 01:28:22;;;;;;;14.23;7.40;;;25.10;93.30;;;;;;4181075;28;20114;-66
2022/03/02 01:30:31;;;;;;;9.55;6.95;;;25.10;93.50;;;;;;4180533;28;20094;-66
2022/03/02 01:32:35;;;;;;;11.52;6.80;;;25.10;93.30;;;;;;4180830;28;20068;-65
2022/03/02 01:34:40;;;;;;;8.18;6.65;;;25.20;93.30;;;;;;4180151;28;20060;-66
2022/03/02 01:36:47;;;;;;;10.30;7.18;;;25.20;93.10;;;;;;4180904;28;20037;-66
2022/03/02 01:38:52;;;;;;;10.05;6.57;;;25.20;93.20;;;;;;4170341;28;20046;-65
2022/03/02 01:40:56;;;;;;;7.65;6.47;;;25.30;93.30;;;;;;4164477;28;20111;-66
2022/03/02 01:43:01;;;;;;;8.63;6.60;;;25.40;93.30;;;;;;4164652;28;20065;-66
2022/03/02 01:45:06;;;;;;;8.68;6.50;;;25.40;93.20;;;;;;4173440;28;20049;-66
2022/03/02 01:47:15;;;;;;;8.73;7.00;;;25.40;92.90;;;;;;4180764;28;20048;-66
2022/03/02 01:49:22;;;;;;;9.90;6.68;;;25.40;93.10;;;;;;4180511;28;20077;-66
2022/03/02 01:51:29;;;;;;;9.43;6.28;;;25.40;92.90;;;;;;4179683;28;20041;-66
2022/03/02 01:53:34;;;;;;;8.68;6.10;;;25.50;92.80;;;;;;4180879;28;20053;-66
2022/03/02 01:55:43;;;;;;;7.90;5.97;;;25.50;92.70;;;;;;4158004;28;20056;-66
2022/03/02 01:57:47;;;;;;;10.57;6.80;;;25.60;92.70;;;;;;4155738;28;20598;-66
2022/03/02 01:59:51;;;;;;;9.10;5.90;;;25.60;92.70;;;;;;4171610;28;20091;-66
2022/03/02 02:01:58;;;;;;;8.95;5.75;;;25.60;92.70;;;;;;4172354;28;20450;-66
2022/03/02 02:04:06;;;;;;;7.20;5.80;;;25.70;92.50;;;;;;4176883;28;20067;-66
2022/03/02 02:06:11;;;;;;;9.57;6.00;;;25.80;92.50;;;;;;4159875;28;20049;-66
2022/03/02 02:08:15;;;;;;;7.18;5.55;;;25.80;92.40;;;;;;4159470;28;20517;-66
2022/03/02 02:10:20;;;;;;;8.95;6.20;;;25.80;92.30;;;;;;4162958;28;20045;-65
2022/03/02 02:12:25;;;;;;;9.20;5.93;;;25.90;92.20;;;;;;4163398;28;20041;-65
2022/03/02 02:14:33;;;;;;;9.43;6.30;;;25.90;92.40;;;;;;4162240;28;21229;-65
2022/03/02 02:16:38;;;;;;;9.57;6.07;;;25.90;92.20;;;;;;4164029;28;20080;-66
2022/03/02 02:18:42;;;;;;;8.38;6.20;;;26.00;92.10;;;;;;4179493;28;20489;-66
2022/03/02 02:20:48;;;;;;;8.30;6.00;;;26.00;92.10;;;;;;4177775;28;20063;-66
2022/03/02 02:22:53;;;;;;;9.27;5.90;;;26.00;92.10;;;;;;4165113;28;20107;-66
2022/03/02 02:24:58;;;;;;;8.68;5.82;;;26.10;92.10;;;;;;4167408;28;20482;-66
2022/03/02 02:27:05;;;;;;;10.23;5.80;;;26.20;92.10;;;;;;4178697;28;20048;-66
2022/03/02 02:29:10;;;;;;;8.70;6.10;;;26.20;92.00;;;;;;4167127;28;20774;-65
2022/03/02 02:31:14;;;;;;;8.73;6.68;;;26.20;92.00;;;;;;4171866;28;20040;-65
2022/03/02 02:33:23;;;;;;;10.63;6.53;;;26.20;91.90;;;;;;4179562;28;20499;-66
2022/03/02 02:35:27;;;;;;;9.52;6.50;;;26.30;91.70;;;;;;4178581;28;20064;-66
2022/03/02 02:37:36;;;;;;;8.93;6.65;;;26.30;91.70;;;;;;4161881;28;20136;-65
2022/03/02 02:39:45;;;;;;;10.02;6.10;;;26.30;91.60;;;;;;4171551;28;20136;-66
2022/03/02 02:41:50;;;;;;;10.45;7.25;;;26.30;91.60;;;;;;4177674;28;20044;-66
2022/03/02 02:43:58;;;;;;;9.93;6.60;;;26.30;91.30;;;;;;4176978;28;20056;-66
2022/03/02 02:46:07;;;;;;;10.63;6.75;;;26.30;91.40;;;;;;4162053;28;20046;-66
2022/03/02 02:48:12;;;;;;;9.88;6.45;;;26.40;91.60;;;;;;4160853;28;20053;-66
2022/03/02 02:50:30;;;;;;;9.13;6.32;;;26.50;91.50;;;;;;4162679;28;20057;-66
2022/03/02 02:52:40;;;;;;;10.90;6.75;;;26.60;91.50;;;;;;4159107;28;20459;-66
2022/03/02 02:54:44;;;;;;;8.35;6.40;;;26.60;91.20;;;;;;4164759;28;20052;-66
2022/03/02 02:56:49;;;;;;;12.27;6.80;;;26.70;91.20;;;;;;4162806;28;20046;-66
2022/03/02 02:58:56;;;;;;;9.00;6.95;;;26.70;91.00;;;;;;4158868;28;20041;-66
2022/03/02 03:01:02;;;;;;;10.13;7.28;;;26.80;91.10;;;;;;4160130;28;20463;-66
2022/03/02 03:03:07;;;;;;;8.82;6.53;;;26.80;91.10;;;;;;4162569;28;20057;-66
2022/03/02 03:05:19;;;;;;;11.35;7.07;;;26.90;90.90;;;;;;4178385;28;20714;-66
2022/03/02 03:07:24;;;;;;;10.30;7.32;;;26.80;90.50;;;;;;4178149;28;20069;-66
2022/03/02 03:09:28;;;;;;;9.45;7.50;;;26.80;90.70;;;;;;4163241;28;20064;-66
2022/03/02 03:11:41;;;;;;;9.82;7.88;;;26.90;90.60;;;;;;4162500;28;20042;-65
2022/03/02 03:13:46;;;;;;;11.75;7.20;;;27.00;90.60;;;;;;4162896;28;20255;-67
2022/03/02 03:15:51;;;;;;;12.70;7.72;;;27.10;90.60;;;;;;4178157;28;20053;-67
2022/03/02 03:17:59;;;;;;;11.27;7.80;;;27.10;90.60;;;;;;4177334;28;20124;-66
2022/03/02 03:20:05;;;;;;;11.07;7.78;;;27.20;90.20;;;;;;4173066;28;20041;-66
2022/03/02 03:22:10;;;;;;;11.50;9.05;;;27.20;90.10;;;;;;4162541;28;20049;-66
2022/03/02 03:24:16;;;;;;;14.13;9.15;;;27.20;90.30;;;;;;4162381;28;20152;-66
2022/03/02 03:26:20;;;;;;;13.25;9.70;;;27.30;90.30;;;;;;4161090;28;20532;-66
2022/03/02 03:28:25;;;;;;;15.27;8.93;;;27.30;90.30;;;;;;4169079;28;20076;-65
2022/03/02 03:30:32;;;;;;;11.75;8.35;;;27.40;90.20;;;;;;4168255;28;20124;-66
2022/03/02 03:32:36;;;;;;;10.48;8.45;;;27.50;90.10;;;;;;4162235;28;20045;-66
2022/03/02 03:34:41;;;;;;;11.32;9.18;;;27.50;89.70;;;;;;4161052;28;20076;-66
2022/03/02 03:36:52;;;;;;;12.77;9.20;;;27.60;89.70;;;;;;4158909;28;20056;-66
2022/03/02 03:38:56;;;;;;;13.15;9.75;;;27.60;89.90;;;;;;4170330;28;20688;-66
2022/03/02 03:41:01;;;;;;;16.00;9.80;;;27.60;89.60;;;;;;4178383;28;20060;-66
2022/03/02 03:43:10;;;;;;;12.50;9.20;;;27.70;89.60;;;;;;4172354;28;20138;-66
2022/03/02 03:45:15;;;;;;;11.95;8.77;;;27.70;89.40;;;;;;4161985;28;20096;-66
2022/03/02 03:47:19;;;;;;;14.02;8.55;;;27.70;89.50;;;;;;4161166;28;20400;-67
2022/03/02 03:49:28;;;;;;;11.73;8.85;;;27.80;89.50;;;;;;4162885;28;20713;-66
2022/03/02 03:51:34;;;;;;;10.52;8.02;;;27.90;89.30;;;;;;4165168;28;20132;-66
2022/03/02 03:53:38;;;;;;;14.13;8.30;;;27.90;89.20;;;;;;4165466;28;20041;-66
2022/03/02 03:55:52;;;;;;;11.93;8.20;;;28.00;89.00;;;;;;4175705;28;20132;-66
2022/03/02 03:57:57;;;;;;;10.23;7.43;;;28.00;88.90;;;;;;4182037;28;20071;-66
2022/03/02 04:00:03;;;;;;;10.88;8.10;;;28.00;88.90;;;;;;4173755;28;20046;-66
2022/03/02 04:02:14;;;;;;;10.75;8.32;;;28.10;88.90;;;;;;4164194;28;20048;-66
2022/03/02 04:04:20;;;;;;;9.07;7.90;;;28.20;88.30;;;;;;4165215;28;20077;-66
2022/03/02 04:06:27;;;;;;;10.77;7.28;;;28.20;88.40;;;;;;4164879;28;20069;-66
2022/03/02 04:08:35;;;;;;;10.43;8.23;;;28.20;88.00;;;;;;4172900;28;20041;-66
2022/03/02 04:10:40;;;;;;;11.70;7.63;;;28.30;87.90;;;;;;4174909;28;20056;-66
2022/03/02 04:12:45;;;;;;;9.38;7.15;;;28.30;88.20;;;;;;4181566;28;20045;-66
2022/03/02 04:14:55;;;;;;;13.35;8.90;;;28.40;88.40;;;;;;4181588;28;20770;-66
2022/03/02 04:17:00;;;;;;;10.65;8.10;;;28.40;89.00;;;;;;4180780;28;20041;-66
2022/03/02 04:19:05;;;;;;;10.77;7.65;;;28.50;88.20;;;;;;4178906;28;20628;-66
2022/03/02 04:21:15;;;;;;;11.45;7.68;;;28.50;88.10;;;;;;4178423;28;20406;-66
2022/03/02 04:23:22;;;;;;;10.73;7.18;;;28.50;87.60;;;;;;4165306;28;20046;-66
2022/03/02 04:25:26;;;;;;;10.38;7.55;;;28.60;88.00;;;;;;4164876;28;20092;-66
2022/03/02 04:27:35;;;;;;;11.20;7.57;;;28.70;87.60;;;;;;4164200;28;20054;-65
2022/03/02 04:29:39;;;;;;;13.07;7.25;;;28.70;86.40;;;;;;4160528;28;20492;-66
2022/03/02 04:31:46;;;;;;;7.63;6.68;;;28.60;86.20;;;;;;4164742;28;20073;-66
2022/03/02 04:33:53;;;;;;;9.40;7.03;;;28.60;86.40;;;;;;4166354;28;20049;-66
2022/03/02 04:35:58;;;;;;;10.75;7.28;;;28.70;86.40;;;;;;4180288;28;20045;-66
2022/03/02 04:38:03;;;;;;;8.68;6.75;;;28.70;86.30;;;;;;4177439;28;20195;-66
2022/03/02 04:40:25;;;;;;;9.70;7.28;;;28.80;86.30;;;;;;4161448;28;20056;-66
2022/03/02 04:42:30;;;;;;;10.07;7.35;;;28.80;86.00;;;;;;4164761;28;20073;-66
2022/03/02 04:44:35;;;;;;;8.57;6.72;;;28.80;86.00;;;;;;4164787;28;20124;-66
2022/03/02 04:46:48;;;;;;;8.68;6.57;;;28.90;86.00;;;;;;4179741;28;20548;-66
2022/03/02 04:48:53;;;;;;;9.35;7.00;;;29.00;85.70;;;;;;4167143;28;20179;-67
2022/03/02 04:50:57;;;;;;;11.80;6.93;;;29.00;86.00;;;;;;4163801;28;20038;-67
2022/03/02 04:53:05;;;;;;;11.60;7.30;;;29.10;85.90;;;;;;4164591;28;20049;-65
2022/03/02 04:55:11;;;;;;;12.63;9.07;;;29.20;86.10;;;;;;4162195;28;20048;-64
2022/03/02 04:57:15;;;;;;;18.85;11.27;;;29.20;86.60;;;;;;4166333;28;20041;-66
2022/03/02 04:59:24;;;;;;;18.27;10.77;;;29.30;86.30;;;;;;4173612;28;20056;-66
2022/03/02 05:01:30;;;;;;;15.27;10.38;;;29.30;86.40;;;;;;4162115;28;20140;-67
2022/03/02 05:03:36;;;;;;;12.40;8.80;;;29.30;85.90;;;;;;4173327;28;20072;-67
2022/03/02 05:05:42;;;;;;;9.80;7.70;;;29.50;85.40;;;;;;4180369;28;20057;-67
2022/03/02 05:07:48;;;;;;;10.90;7.22;;;29.50;85.20;;;;;;4168463;28;20041;-67
2022/03/02 05:09:53;;;;;;;10.80;7.40;;;29.50;85.30;;;;;;4168012;28;20053;-66
2022/03/02 05:11:59;;;;;;;9.20;6.53;;;29.50;84.90;;;;;;4168623;28;20102;-67
2022/03/02 05:14:07;;;;;;;8.73;7.45;;;29.60;85.30;;;;;;4174350;28;20073;-66
2022/03/02 05:16:15;;;;;;;11.27;7.00;;;29.50;83.70;;;;;;4175994;28;20107;-66
2022/03/02 05:18:21;;;;;;;8.75;6.55;;;29.60;84.90;;;;;;4161376;28;20740;-66
2022/03/02 05:20:27;;;;;;;10.20;7.03;;;29.60;85.20;;;;;;4162691;28;20045;-67
2022/03/02 05:22:32;;;;;;;11.32;7.03;;;29.60;85.20;;;;;;4165114;28;20045;-66
2022/03/02 05:24:38;;;;;;;7.93;6.57;;;29.70;85.30;;;;;;4163866;28;20250;-66
2022/03/02 05:26:44;;;;;;;9.10;6.70;;;29.70;85.10;;;;;;4162001;28;20049;-66
2022/03/02 05:28:49;;;;;;;10.93;6.97;;;29.80;84.80;;;;;;4159753;28;20053;-66
2022/03/02 05:30:55;;;;;;;9.45;6.97;;;29.80;84.20;;;;;;4171349;28;20040;-66
2022/03/02 05:32:59;;;;;;;8.43;6.95;;;29.80;84.20;;;;;;4163042;28;20050;-66
2022/03/02 05:35:04;;;;;;;10.23;7.65;;;29.80;84.10;;;;;;4172591;28;20163;-66
2022/03/02 05:37:10;;;;;;;7.80;6.35;;;29.90;85.20;;;;;;4179412;28;20045;-66
2022/03/02 05:39:16;;;;;;;12.98;6.88;;;29.90;84.10;;;;;;4166301;28;20083;-65
2022/03/02 05:41:21;;;;;;;8.40;6.57;;;29.90;83.90;;;;;;4167750;28;20128;-66
2022/03/02 05:43:27;;;;;;;7.55;6.70;;;30.00;83.60;;;;;;4179467;28;20044;-66
2022/03/02 05:45:32;;;;;;;8.85;6.15;;;30.00;83.30;;;;;;4165032;28;20052;-66
2022/03/02 05:47:37;;;;;;;7.18;6.15;;;30.00;83.20;;;;;;4176710;28;20059;-66
2022/03/02 05:49:44;;;;;;;7.32;6.30;;;30.00;83.50;;;;;;4179839;28;20503;-66
2022/03/02 05:51:49;;;;;;;9.63;7.10;;;30.10;83.40;;;;;;4177923;28;20127;-66
2022/03/02 05:53:54;;;;;;;8.15;6.40;;;30.20;83.00;;;;;;4168233;28;20408;-66
2022/03/02 05:56:00;;;;;;;7.65;6.45;;;30.20;82.70;;;;;;4160888;28;20100;-66
2022/03/02 05:58:08;;;;;;;10.45;6.90;;;30.30;82.40;;;;;;4162622;28;20050;-68
2022/03/02 06:00:13;;;;;;;8.07;6.07;;;30.30;80.80;;;;;;4167553;28;20467;-65
2022/03/02 06:02:20;;;;;;;8.02;6.50;;;30.20;80.50;;;;;;4175007;28;20415;-65
2022/03/02 06:04:27;;;;;;;7.63;6.40;;;30.20;80.50;;;;;;4175401;28;20073;-65
2022/03/02 06:06:35;;;;;;;8.43;6.38;;;30.30;80.70;;;;;;4161505;28;20049;-65
2022/03/02 06:08:41;;;;;;;13.05;6.57;;;30.30;80.90;;;;;;4159157;28;20049;-65
2022/03/02 06:10:47;;;;;;;10.93;6.82;;;30.40;81.60;;;;;;4175913;28;20058;-65
2022/03/02 06:12:52;;;;;;;6.68;5.93;;;30.50;81.80;;;;;;4172529;28;20049;-65
2022/03/02 06:14:59;;;;;;;8.75;6.10;;;30.60;81.80;;;;;;4172299;28;20069;-65
2022/03/02 06:17:06;;;;;;;74.45;12.73;;;30.60;81.50;;;;;;4166019;28;20045;-66
2022/03/02 06:19:11;;;;;;;36.70;9.02;;;30.70;81.50;;;;;;4173208;28;20053;-64
2022/03/02 06:21:24;;;;;;;23.63;7.55;;;30.70;81.60;;;;;;4164517;28;20038;-65
2022/03/02 06:23:29;;;;;;;15.18;7.50;;;30.70;81.80;;;;;;4160312;28;20136;-65
2022/03/02 06:25:34;;;;;;;11.90;7.03;;;30.80;82.10;;;;;;4161388;28;20041;-65
2022/03/02 06:27:41;;;;;;;10.95;7.20;;;30.80;81.50;;;;;;4166200;28;20634;-64
2022/03/02 06:29:48;;;;;;;12.60;7.40;;;30.80;81.00;;;;;;4168062;28;20040;-65
2022/03/02 06:31:52;;;;;;;10.20;7.50;;;30.80;81.20;;;;;;4165175;28;20056;-65
2022/03/02 06:33:56;;;;;;;10.80;6.88;;;30.90;80.60;;;;;;4164554;28;20053;-65
2022/03/02 06:36:03;;;;;;;10.35;6.95;;;30.90;81.00;;;;;;4178204;28;20049;-65
2022/03/02 06:38:08;;;;;;;8.25;6.43;;;30.90;80.80;;;;;;4173780;28;20393;-65
2022/03/02 06:40:14;;;;;;;7.10;6.30;;;30.90;80.50;;;;;;4174719;28;20048;-64
2022/03/02 06:42:26;;;;;;;8.48;6.57;;;31.00;80.50;;;;;;4175065;28;20454;-65
2022/03/02 06:44:48;;;;;;;9.18;7.28;;;31.00;80.40;;;;;;4162741;28;20571;-66
2022/03/02 06:47:01;;;;;;;9.95;7.13;;;31.10;80.80;;;;;;4162577;28;20084;-65
2022/03/02 06:49:45;;;;;;;10.63;7.03;;;31.10;79.50;;;;;;4159891;28;20058;-65
2022/03/02 06:51:49;;;;;;;8.93;6.65;;;31.20;79.70;;;;;;4161961;28;20532;-66
2022/03/02 06:53:54;;;;;;;9.45;6.57;;;31.20;79.80;;;;;;4161757;28;20046;-65
2022/03/02 06:56:00;;;;;;;8.57;6.65;;;31.20;79.80;;;;;;4166170;28;20041;-65
2022/03/02 06:58:04;;;;;;;8.65;7.13;;;31.20;79.30;;;;;;4171450;28;20058;-65
2022/03/02 07:00:16;;;;;;;9.30;6.60;;;31.30;79.80;;;;;;4169541;28;20635;-65
2022/03/02 07:02:44;;;;;;;9.95;7.00;;;31.40;79.50;;;;;;4166101;28;20144;-65
2022/03/02 07:04:50;;;;;;;9.45;7.28;;;31.40;79.50;;;;;;4163821;28;20099;-64
2022/03/02 07:06:56;;;;;;;8.77;6.85;;;31.50;79.30;;;;;;4162038;28;20041;-65
2022/03/02 07:09:03;;;;;;;11.07;7.05;;;31.40;79.10;;;;;;4170792;28;20064;-65
2022/03/02 07:11:10;;;;;;;10.93;7.43;;;31.40;79.20;;;;;;4177494;28;20077;-64
2022/03/02 07:13:17;;;;;;;9.70;6.80;;;31.50;78.70;;;;;;4177797;28;20545;-65
2022/03/02 07:15:25;;;;;;;8.23;6.63;;;31.50;78.90;;;;;;4168456;28;20053;-65
2022/03/02 07:17:32;;;;;;;8.13;7.32;;;31.50;78.20;;;;;;4164822;28;20041;-65
2022/03/02 07:19:36;;;;;;;9.50;6.93;;;31.50;78.60;;;;;;4175082;28;20080;-65
2022/03/02 07:21:42;;;;;;;10.35;6.93;;;31.50;78.40;;;;;;4161990;28;20512;-65
2022/03/02 07:24:09;;;;;;;8.52;7.60;;;31.50;77.30;;;;;;4160841;28;20069;-65
2022/03/02 07:26:16;;;;;;;9.85;7.40;;;31.60;77.60;;;;;;4162197;28;20060;-65
2022/03/02 07:28:24;;;;;;;8.30;7.40;;;31.50;77.70;;;;;;4161800;28;20500;-65
2022/03/02 07:30:29;;;;;;;8.68;7.25;;;31.60;78.30;;;;;;4160932;28;20046;-65
2022/03/02 07:32:37;;;;;;;9.25;7.53;;;31.60;77.60;;;;;;4162081;28;20060;-65
2022/03/02 07:34:42;;;;;;;9.88;7.40;;;31.60;76.50;;;;;;4161874;28;20047;-65
2022/03/02 07:36:46;;;;;;;11.45;7.18;;;31.50;77.10;;;;;;4162257;28;20091;-64
2022/03/02 07:38:53;;;;;;;10.45;7.45;;;31.40;77.00;;;;;;4170113;28;20041;-65
2022/03/02 07:41:04;;;;;;;9.32;7.68;;;31.40;77.00;;;;;;4178475;28;20096;-65
2022/03/02 07:43:09;;;;;;;10.13;7.43;;;31.50;77.40;;;;;;4178346;28;20119;-65
2022/03/02 07:45:16;;;;;;;11.93;7.47;;;31.50;77.50;;;;;;4177378;28;20049;-65
2022/03/02 07:47:24;;;;;;;9.63;7.30;;;31.50;77.80;;;;;;4210302;28;20113;-65
2022/03/02 07:49:30;;;;;;;10.10;7.95;;;31.50;77.70;;;;;;4177394;28;20539;-65
2022/03/02 07:51:35;;;;;;;10.32;7.82;;;31.60;77.70;;;;;;4172444;28;20088;-66
2022/03/02 07:53:41;;;;;;;9.38;7.85;;;31.60;76.90;;;;;;4163907;28;20362;-65
2022/03/02 07:55:46;;;;;;;11.60;7.70;;;31.60;77.50;;;;;;4174609;28;20399;-66
2022/03/02 07:57:55;;;;;;;12.60;8.07;;;31.50;77.20;;;;;;4172083;28;20037;-65
2022/03/02 08:00:03;;;;;;;10.48;8.15;;;31.60;77.60;;;;;;4168323;28;20530;-66
2022/03/02 08:02:09;;;;;;;10.02;8.63;;;31.60;77.60;;;;;;4161462;28;20045;-66
2022/03/02 08:04:16;;;;;;;10.95;7.75;;;31.60;77.70;;;;;;4157319;28;20053;-65
2022/03/02 08:06:23;;;;;;;11.57;8.18;;;31.60;77.60;;;;;;4174611;28;20049;-66
2022/03/02 08:08:28;;;;;;;10.70;8.32;;;31.60;76.40;;;;;;4170019;28;20428;-65
2022/03/02 08:10:36;;;;;;;11.32;8.57;;;31.60;76.70;;;;;;4173499;28;20061;-65
2022/03/02 08:12:43;;;;;;;9.85;8.27;;;31.60;76.60;;;;;;4174377;28;20045;-66
2022/03/02 08:14:48;;;;;;;8.63;7.68;;;31.60;76.50;;;;;;4161382;28;20045;-65
2022/03/02 08:17:02;;;;;;;10.52;8.35;;;31.60;76.80;;;;;;4161816;28;20133;-66
2022/03/02 08:19:08;;;;;;;11.85;8.23;;;31.60;76.90;;;;;;4172775;28;20060;-66
2022/03/02 08:21:17;;;;;;;9.75;8.30;;;31.60;76.90;;;;;;4162809;28;20042;-65
2022/03/02 08:23:24;;;;;;;13.30;10.05;;;31.70;76.80;;;;;;4161850;28;20571;-66
2022/03/02 08:25:31;;;;;;;12.07;10.75;;;31.70;75.70;;;;;;4161149;28;20116;-66
2022/03/02 08:27:36;;;;;;;12.02;9.43;;;31.60;76.20;;;;;;4161926;28;20705;-65
2022/03/02 08:29:45;;;;;;;11.38;9.48;;;31.60;73.50;;;;;;4159953;28;20060;-66
2022/03/02 08:31:51;;;;;;;10.13;9.05;;;31.60;73.40;;;;;;4161712;28;20053;-66
2022/03/02 08:33:56;;;;;;;10.98;9.50;;;31.60;72.90;;;;;;4161579;28;20140;-66
2022/03/02 08:36:04;;;;;;;11.70;9.40;;;31.50;72.30;;;;;;4175304;28;20045;-66
2022/03/02 08:38:12;;;;;;;13.13;9.70;;;31.50;72.40;;;;;;4176112;28;20049;-66
2022/03/02 08:40:16;;;;;;;11.85;10.18;;;31.50;73.10;;;;;;4179584;28;20411;-66
2022/03/02 08:42:22;;;;;;;11.35;9.70;;;31.40;73.10;;;;;;4181271;28;20144;-66
2022/03/02 08:44:27;;;;;;;11.48;9.77;;;31.50;73.30;;;;;;4168010;28;20048;-66
2022/03/02 08:46:32;;;;;;;10.82;9.23;;;31.50;74.60;;;;;;4164016;28;20041;-65
2022/03/02 08:48:39;;;;;;;10.35;9.23;;;31.50;75.50;;;;;;4164293;28;20056;-66
2022/03/02 08:50:46;;;;;;;9.77;8.77;;;31.50;75.90;;;;;;4174682;28;20534;-65
2022/03/02 08:52:54;;;;;;;12.20;9.35;;;31.50;76.40;;;;;;4180677;28;20033;-66
2022/03/02 08:55:04;;;;;;;12.23;9.95;;;31.50;76.10;;;;;;4168154;28;20049;-66
2022/03/02 08:57:11;;;;;;;11.95;9.88;;;31.50;74.70;;;;;;4163600;28;20054;-66
2022/03/02 08:59:18;;;;;;;11.68;9.20;;;31.50;75.50;;;;;;4164939;28;20053;-66
2022/03/02 09:01:30;;;;;;;11.77;8.93;;;31.50;76.10;;;;;;4164386;28;20041;-66
2022/03/02 09:03:39;;;;;;;10.50;8.95;;;31.40;76.20;;;;;;4164317;28;20052;-66
2022/03/02 09:05:43;;;;;;;10.82;9.57;;;31.40;76.00;;;;;;4174943;28;20420;-66
2022/03/02 09:07:50;;;;;;;11.55;9.50;;;31.40;76.00;;;;;;4164319;28;20072;-66
2022/03/02 09:09:57;;;;;;;13.40;10.00;;;31.40;76.20;;;;;;4163468;28;20041;-66
2022/03/02 09:12:02;;;;;;;12.40;10.20;;;31.40;76.50;;;;;;4164301;28;20124;-65
2022/03/02 09:14:09;;;;;;;11.00;9.23;;;31.40;76.70;;;;;;4163095;28;20059;-66
2022/03/02 09:16:17;;;;;;;11.35;9.82;;;31.40;74.80;;;;;;4179882;28;20709;-66
2022/03/02 09:18:24;;;;;;;12.07;9.75;;;31.40;76.40;;;;;;4180745;28;20033;-66
2022/03/02 09:20:31;;;;;;;12.95;9.57;;;31.30;76.10;;;;;;4170667;28;20077;-66
2022/03/02 09:22:41;;;;;;;10.80;9.40;;;31.40;75.90;;;;;;4164088;28;20053;-66
2022/03/02 09:24:46;;;;;;;13.02;10.43;;;31.30;76.10;;;;;;4163814;28;20045;-66
2022/03/02 09:26:52;;;;;;;10.55;9.45;;;31.30;76.30;;;;;;4162206;28;20073;-66
2022/03/02 09:29:21;;;;;;;12.32;9.20;;;31.30;76.30;;;;;;4162632;28;20396;-66
2022/03/02 09:31:26;;;;;;;11.55;9.85;;;31.30;76.80;;;;;;4163054;28;20091;-65
2022/03/02 09:33:34;;;;;;;10.18;9.05;;;31.30;76.80;;;;;;4170704;28;20045;-65
2022/03/02 09:35:38;;;;;;;11.07;9.38;;;31.30;76.80;;;;;;4163903;28;20045;-65
2022/03/02 09:37:48;;;;;;;11.38;9.23;;;31.30;76.70;;;;;;4163403;28;20741;-65
2022/03/02 09:39:55;;;;;;;12.70;10.43;;;31.30;76.30;;;;;;4164985;28;20868;-66
2022/03/02 09:42:05;;;;;;;12.63;8.93;;;31.20;76.00;;;;;;4178879;28;20049;-66
2022/03/02 09:44:12;;;;;;;13.15;9.43;;;31.20;76.10;;;;;;4180260;28;20048;-65
2022/03/02 09:46:18;;;;;;;10.73;9.57;;;31.20;76.10;;;;;;4170293;28;20048;-65
2022/03/02 09:48:31;;;;;;;11.20;9.75;;;31.20;76.20;;;;;;4162874;28;20137;-65
2022/03/02 09:50:37;;;;;;;14.13;10.27;;;31.20;76.30;;;;;;4163143;28;20562;-66
2022/03/02 09:52:45;;;;;;;11.02;9.88;;;31.20;76.00;;;;;;4162333;28;20041;-66
2022/03/02 09:54:54;;;;;;;12.48;10.80;;;31.10;76.40;;;;;;4160224;28;20045;-64
2022/03/02 09:56:59;;;;;;;17.75;11.20;;;31.10;76.70;;;;;;4171421;28;20041;-65
2022/03/02 09:59:06;;;;;;;12.75;11.02;;;31.10;77.30;;;;;;4171786;28;20076;-65
2022/03/02 10:01:18;;;;;;;12.13;10.35;;;31.10;77.40;;;;;;4168782;28;20044;-65
2022/03/02 10:03:24;;;;;;;14.10;10.35;;;31.20;77.60;;;;;;4165243;28;20079;-65
2022/03/02 10:05:31;;;;;;;13.80;10.13;;;31.20;77.60;;;;;;4180830;28;20048;-64
2022/03/02 10:07:45;;;;;;;12.00;10.20;;;31.10;77.80;;;;;;4176039;28;20073;-65
2022/03/02 10:09:51;;;;;;;12.68;10.43;;;31.10;78.00;;;;;;4174416;28;20049;-65
2022/03/02 10:11:58;;;;;;;12.20;10.32;;;31.10;78.20;;;;;;4177701;28;20111;-64
2022/03/02 10:14:12;;;;;;;14.05;10.20;;;31.00;78.60;;;;;;4167585;28;20046;-66
2022/03/02 10:16:22;;;;;;;55.08;14.85;;;31.00;79.00;;;;;;4168220;28;20620;-66
2022/03/02 10:18:34;;;;;;;42.35;13.45;;;31.00;79.20;;;;;;4180788;28;20045;-66
2022/03/02 10:20:43;;;;;;;49.10;14.63;;;31.00;79.30;;;;;;4178983;28;20057;-67
2022/03/02 10:23:08;;;;;;;40.42;13.88;;;30.90;79.50;;;;;;4168614;28;20048;-67
2022/03/02 10:25:15;;;;;;;36.65;15.15;;;30.90;79.80;;;;;;4170036;28;20057;-65
2022/03/02 10:27:47;;;;;;;34.28;14.60;;;30.90;80.00;;;;;;4179692;28;20055;-66
2022/03/02 10:30:02;;;;;;;28.40;14.95;;;30.90;80.20;;;;;;4172784;28;20491;-67
2022/03/02 10:32:11;;;;;;;25.30;14.32;;;30.90;80.50;;;;;;4166427;28;20164;-65
2022/03/02 10:34:39;;;;;;;27.17;14.30;;;30.90;80.80;;;;;;4175039;28;20456;-67
2022/03/02 10:36:45;;;;;;;24.75;14.18;;;30.80;81.10;;;;;;4172154;28;20057;-67
2022/03/02 10:39:11;;;;;;;21.27;12.80;;;30.80;81.10;;;;;;4173045;28;20547;-67
2022/03/02 10:41:20;;;;;;;16.33;11.95;;;30.80;81.50;;;;;;4178687;28;20044;-66
2022/03/02 10:43:25;;;;;;;16.80;11.98;;;30.80;81.70;;;;;;4179771;28;20065;-66
2022/03/02 10:45:43;;;;;;;17.88;11.48;;;30.70;81.90;;;;;;4183697;28;20055;-67
2022/03/02 10:48:21;;;;;;;14.82;10.80;;;30.70;82.00;;;;;;4180573;28;20053;-67
2022/03/02 10:50:31;;;;;;;14.15;11.35;;;30.60;82.30;;;;;;4173929;28;20443;-66
2022/03/02 10:52:38;;;;;;;15.95;10.52;;;30.60;82.70;;;;;;4172723;28;20073;-66
2022/03/02 10:54:46;;;;;;;14.27;10.85;;;30.60;82.90;;;;;;4167398;28;20049;-67